sensor_id;sensor_type;location;lat;lon;timestamp;temperature;humidity
30628;DHT22;17394;50.890;4.724;2023-04-25T00:01:19;7.60;99.90
30628;DHT22;17394;50.890;4.724;2023-04-25T00:03:47;7.70;99.90
30628;DHT22;17394;50.890;4.724;2023-04-25T00:06:13;7.70;99.90
30628;DHT22;17394;50.890;4.724;2023-04-25T00:08:39;7.60;99.90
30628;DHT22;17394;50.890;4.724;2023-04-25T00:11:04;7.70;99.90
30628;DHT22;17394;50.890;4.724;2023-04-25T00:13:30;7.60;99.90
30628;DHT22;17394;50.890;4.724;2023-04-25T00:15:56;7.60;99.90
30628;DHT22;17394;50.890;4.724;2023-04-25T00:18:23;7.60;99.90
30628;DHT22;17394;50.890;4.724;2023-04-25T00:20:49;7.60;99.90
30628;DHT22;17394;50.890;4.724;2023-04-25T00:23:15;7.60;99.90
30628;DHT22;17394;50.890;4.724;2023-04-25T00:25:46;7.60;99.90
30628;DHT22;17394;50.890;4.724;2023-04-25T00:28:12;7.60;99.90
30628;DHT22;17394;50.890;4.724;2023-04-25T00:30:38;7.70;99.90
30628;DHT22;17394;50.890;4.724;2023-04-25T00:33:03;7.60;99.90
30628;DHT22;17394;50.890;4.724;2023-04-25T00:35:29;7.60;99.90
30628;DHT22;17394;50.890;4.724;2023-04-25T00:37:55;7.60;99.90
30628;DHT22;17394;50.890;4.724;2023-04-25T00:40:20;7.60;99.90
30628;DHT22;17394;50.890;4.724;2023-04-25T00:42:47;7.60;99.90
30628;DHT22;17394;50.890;4.724;2023-04-25T00:45:13;7.60;99.90
30628;DHT22;17394;50.890;4.724;2023-04-25T00:47:42;7.60;99.90
30628;DHT22;17394;50.890;4.724;2023-04-25T00:50:08;7.60;99.90
30628;DHT22;17394;50.890;4.724;2023-04-25T00:52:34;7.60;99.90
30628;DHT22;17394;50.890;4.724;2023-04-25T00:55:00;7.60;99.90
30628;DHT22;17394;50.890;4.724;2023-04-25T00:57:26;7.70;99.90
30628;DHT22;17394;50.890;4.724;2023-04-25T00:59:52;7.70;99.90
30628;DHT22;17394;50.890;4.724;2023-04-25T01:02:18;7.70;99.90
30628;DHT22;17394;50.890;4.724;2023-04-25T01:04:44;7.60;99.90
30628;DHT22;17394;50.890;4.724;2023-04-25T01:07:10;7.70;99.90
30628;DHT22;17394;50.890;4.724;2023-04-25T01:09:36;7.70;99.90
30628;DHT22;17394;50.890;4.724;2023-04-25T01:12:01;7.70;99.90
30628;DHT22;17394;50.890;4.724;2023-04-25T01:14:28;7.60;99.90
30628;DHT22;17394;50.890;4.724;2023-04-25T01:16:55;7.70;99.90
30628;DHT22;17394;50.890;4.724;2023-04-25T01:19:20;7.70;99.90
30628;DHT22;17394;50.890;4.724;2023-04-25T01:21:46;7.60;99.90
30628;DHT22;17394;50.890;4.724;2023-04-25T01:24:12;7.60;99.90
30628;DHT22;17394;50.890;4.724;2023-04-25T01:26:38;7.60;99.90
30628;DHT22;17394;50.890;4.724;2023-04-25T01:29:06;7.60;99.90
30628;DHT22;17394;50.890;4.724;2023-04-25T01:31:32;7.60;99.90
30628;DHT22;17394;50.890;4.724;2023-04-25T01:33:58;7.50;99.90
30628;DHT22;17394;50.890;4.724;2023-04-25T01:36:23;7.50;99.90
30628;DHT22;17394;50.890;4.724;2023-04-25T01:38:49;7.50;99.90
30628;DHT22;17394;50.890;4.724;2023-04-25T01:41:15;7.40;99.90
30628;DHT22;17394;50.890;4.724;2023-04-25T01:43:42;7.40;99.90
30628;DHT22;17394;50.890;4.724;2023-04-25T01:46:07;7.40;99.90
30628;DHT22;17394;50.890;4.724;2023-04-25T01:48:33;7.40;99.90
30628;DHT22;17394;50.890;4.724;2023-04-25T01:50:59;7.40;99.90
30628;DHT22;17394;50.890;4.724;2023-04-25T01:53:24;7.30;99.90
30628;DHT22;17394;50.890;4.724;2023-04-25T01:55:50;7.30;99.90
30628;DHT22;17394;50.890;4.724;2023-04-25T01:58:16;7.30;99.90
30628;DHT22;17394;50.890;4.724;2023-04-25T02:00:41;7.30;99.90
30628;DHT22;17394;50.890;4.724;2023-04-25T02:03:07;7.30;99.90
30628;DHT22;17394;50.890;4.724;2023-04-25T02:05:34;7.30;99.90
30628;DHT22;17394;50.890;4.724;2023-04-25T02:08:00;7.30;99.90
30628;DHT22;17394;50.890;4.724;2023-04-25T02:10:26;7.30;99.90
30628;DHT22;17394;50.890;4.724;2023-04-25T02:12:52;7.30;99.90
30628;DHT22;17394;50.890;4.724;2023-04-25T02:15:17;7.30;99.90
30628;DHT22;17394;50.890;4.724;2023-04-25T02:17:43;7.20;99.90
30628;DHT22;17394;50.890;4.724;2023-04-25T02:20:10;7.20;99.90
30628;DHT22;17394;50.890;4.724;2023-04-25T02:22:36;7.20;99.90
30628;DHT22;17394;50.890;4.724;2023-04-25T02:25:02;7.20;99.90
30628;DHT22;17394;50.890;4.724;2023-04-25T02:27:30;7.20;99.90
30628;DHT22;17394;50.890;4.724;2023-04-25T02:29:55;7.20;99.90
30628;DHT22;17394;50.890;4.724;2023-04-25T02:32:21;7.20;99.90
30628;DHT22;17394;50.890;4.724;2023-04-25T02:34:47;7.10;99.90
30628;DHT22;17394;50.890;4.724;2023-04-25T02:37:13;7.10;99.90
30628;DHT22;17394;50.890;4.724;2023-04-25T02:39:39;7.10;99.90
30628;DHT22;17394;50.890;4.724;2023-04-25T02:42:04;7.10;99.90
30628;DHT22;17394;50.890;4.724;2023-04-25T02:44:30;7.10;99.90
30628;DHT22;17394;50.890;4.724;2023-04-25T02:46:56;7.10;99.90
30628;DHT22;17394;50.890;4.724;2023-04-25T02:49:21;7.10;99.90
30628;DHT22;17394;50.890;4.724;2023-04-25T02:51:47;7.10;99.90
30628;DHT22;17394;50.890;4.724;2023-04-25T02:54:13;7.10;99.90
30628;DHT22;17394;50.890;4.724;2023-04-25T02:56:38;7.10;99.90
30628;DHT22;17394;50.890;4.724;2023-04-25T02:59:04;7.10;99.90
30628;DHT22;17394;50.890;4.724;2023-04-25T03:01:30;7.10;99.90
30628;DHT22;17394;50.890;4.724;2023-04-25T03:03:55;7.10;99.90
30628;DHT22;17394;50.890;4.724;2023-04-25T03:06:21;7.10;99.90
30628;DHT22;17394;50.890;4.724;2023-04-25T03:08:46;7.10;99.90
30628;DHT22;17394;50.890;4.724;2023-04-25T03:11:12;7.10;99.90
30628;DHT22;17394;50.890;4.724;2023-04-25T03:13:38;7.10;99.90
30628;DHT22;17394;50.890;4.724;2023-04-25T03:16:03;7.00;99.90
30628;DHT22;17394;50.890;4.724;2023-04-25T03:18:29;7.00;99.90
30628;DHT22;17394;50.890;4.724;2023-04-25T03:20:55;7.00;99.90
30628;DHT22;17394;50.890;4.724;2023-04-25T03:23:20;7.00;99.90
30628;DHT22;17394;50.890;4.724;2023-04-25T03:25:46;7.00;99.90
30628;DHT22;17394;50.890;4.724;2023-04-25T03:28:12;7.00;99.90
30628;DHT22;17394;50.890;4.724;2023-04-25T03:30:37;7.00;99.90
30628;DHT22;17394;50.890;4.724;2023-04-25T03:33:03;7.00;99.90
30628;DHT22;17394;50.890;4.724;2023-04-25T03:35:29;7.00;99.90
30628;DHT22;17394;50.890;4.724;2023-04-25T03:37:54;7.00;99.90
30628;DHT22;17394;50.890;4.724;2023-04-25T03:40:20;7.00;99.90
30628;DHT22;17394;50.890;4.724;2023-04-25T03:42:46;7.00;99.90
30628;DHT22;17394;50.890;4.724;2023-04-25T03:45:11;7.00;99.90
30628;DHT22;17394;50.890;4.724;2023-04-25T03:47:37;7.00;99.90
30628;DHT22;17394;50.890;4.724;2023-04-25T03:50:02;6.90;99.90
30628;DHT22;17394;50.890;4.724;2023-04-25T03:52:28;6.90;99.90
30628;DHT22;17394;50.890;4.724;2023-04-25T03:54:54;6.80;99.90
30628;DHT22;17394;50.890;4.724;2023-04-25T03:57:19;6.80;99.90
30628;DHT22;17394;50.890;4.724;2023-04-25T03:59:45;6.70;99.90
30628;DHT22;17394;50.890;4.724;2023-04-25T04:02:11;6.70;99.90
30628;DHT22;17394;50.890;4.724;2023-04-25T04:04:36;6.90;99.90
30628;DHT22;17394;50.890;4.724;2023-04-25T04:07:02;6.50;99.90
30628;DHT22;17394;50.890;4.724;2023-04-25T04:09:28;6.50;99.90
30628;DHT22;17394;50.890;4.724;2023-04-25T04:11:54;6.40;99.90
30628;DHT22;17394;50.890;4.724;2023-04-25T04:14:19;6.40;99.90
30628;DHT22;17394;50.890;4.724;2023-04-25T04:16:45;6.40;99.90
30628;DHT22;17394;50.890;4.724;2023-04-25T04:19:10;6.30;99.90
30628;DHT22;17394;50.890;4.724;2023-04-25T04:21:36;6.30;99.90
30628;DHT22;17394;50.890;4.724;2023-04-25T04:24:02;6.30;99.90
30628;DHT22;17394;50.890;4.724;2023-04-25T04:26:27;6.20;99.90
30628;DHT22;17394;50.890;4.724;2023-04-25T04:28:54;6.20;99.90
30628;DHT22;17394;50.890;4.724;2023-04-25T04:31:20;6.20;99.90
30628;DHT22;17394;50.890;4.724;2023-04-25T04:33:46;6.20;99.90
30628;DHT22;17394;50.890;4.724;2023-04-25T04:36:12;6.20;99.90
30628;DHT22;17394;50.890;4.724;2023-04-25T04:38:38;6.20;99.90
30628;DHT22;17394;50.890;4.724;2023-04-25T04:41:04;6.20;99.90
30628;DHT22;17394;50.890;4.724;2023-04-25T04:43:30;6.20;99.90
30628;DHT22;17394;50.890;4.724;2023-04-25T04:45:55;6.30;99.90
30628;DHT22;17394;50.890;4.724;2023-04-25T04:48:24;6.30;99.90
30628;DHT22;17394;50.890;4.724;2023-04-25T04:50:50;6.30;99.90
30628;DHT22;17394;50.890;4.724;2023-04-25T04:53:15;6.30;99.90
30628;DHT22;17394;50.890;4.724;2023-04-25T04:55:41;6.30;99.90
30628;DHT22;17394;50.890;4.724;2023-04-25T04:58:07;6.30;99.90
30628;DHT22;17394;50.890;4.724;2023-04-25T05:00:33;6.30;99.90
30628;DHT22;17394;50.890;4.724;2023-04-25T05:02:58;6.30;99.90
30628;DHT22;17394;50.890;4.724;2023-04-25T05:05:24;6.30;99.90
30628;DHT22;17394;50.890;4.724;2023-04-25T05:07:50;6.30;99.90
30628;DHT22;17394;50.890;4.724;2023-04-25T05:10:16;6.40;99.90
30628;DHT22;17394;50.890;4.724;2023-04-25T05:12:42;6.40;99.90
30628;DHT22;17394;50.890;4.724;2023-04-25T05:15:08;6.40;99.90
30628;DHT22;17394;50.890;4.724;2023-04-25T05:17:34;6.40;99.90
30628;DHT22;17394;50.890;4.724;2023-04-25T05:19:59;6.40;99.90
30628;DHT22;17394;50.890;4.724;2023-04-25T05:22:25;6.40;99.90
30628;DHT22;17394;50.890;4.724;2023-04-25T05:24:51;6.40;99.90
30628;DHT22;17394;50.890;4.724;2023-04-25T05:27:17;6.40;99.90
30628;DHT22;17394;50.890;4.724;2023-04-25T05:29:43;6.40;99.90
30628;DHT22;17394;50.890;4.724;2023-04-25T05:32:09;6.40;99.90
30628;DHT22;17394;50.890;4.724;2023-04-25T05:34:34;6.40;99.90
30628;DHT22;17394;50.890;4.724;2023-04-25T05:37:00;6.40;99.90
30628;DHT22;17394;50.890;4.724;2023-04-25T05:39:26;6.40;99.90
30628;DHT22;17394;50.890;4.724;2023-04-25T05:41:52;6.40;99.90
30628;DHT22;17394;50.890;4.724;2023-04-25T05:44:17;6.40;99.90
30628;DHT22;17394;50.890;4.724;2023-04-25T05:46:43;6.40;99.90
30628;DHT22;17394;50.890;4.724;2023-04-25T05:49:09;6.40;99.90
30628;DHT22;17394;50.890;4.724;2023-04-25T05:51:34;6.50;99.90
30628;DHT22;17394;50.890;4.724;2023-04-25T05:54:00;6.50;99.90
30628;DHT22;17394;50.890;4.724;2023-04-25T05:56:26;6.60;99.90
30628;DHT22;17394;50.890;4.724;2023-04-25T05:58:51;6.50;99.90
30628;DHT22;17394;50.890;4.724;2023-04-25T06:01:17;6.50;99.90
30628;DHT22;17394;50.890;4.724;2023-04-25T06:03:43;6.60;99.90
30628;DHT22;17394;50.890;4.724;2023-04-25T06:06:09;6.60;99.90
30628;DHT22;17394;50.890;4.724;2023-04-25T06:08:35;6.60;99.90
30628;DHT22;17394;50.890;4.724;2023-04-25T06:11:00;6.60;99.90
30628;DHT22;17394;50.890;4.724;2023-04-25T06:13:26;6.60;99.90
30628;DHT22;17394;50.890;4.724;2023-04-25T06:15:51;6.70;99.90
30628;DHT22;17394;50.890;4.724;2023-04-25T06:18:20;6.70;99.90
30628;DHT22;17394;50.890;4.724;2023-04-25T06:20:46;6.80;99.90
30628;DHT22;17394;50.890;4.724;2023-04-25T06:23:12;6.90;99.90
30628;DHT22;17394;50.890;4.724;2023-04-25T06:25:37;7.00;99.90
30628;DHT22;17394;50.890;4.724;2023-04-25T06:28:03;7.10;99.90
30628;DHT22;17394;50.890;4.724;2023-04-25T06:30:29;7.20;99.90
30628;DHT22;17394;50.890;4.724;2023-04-25T06:32:55;7.30;99.90
30628;DHT22;17394;50.890;4.724;2023-04-25T06:35:20;7.40;99.90
30628;DHT22;17394;50.890;4.724;2023-04-25T06:37:46;7.50;99.90
30628;DHT22;17394;50.890;4.724;2023-04-25T06:40:12;7.60;99.90
30628;DHT22;17394;50.890;4.724;2023-04-25T06:42:37;7.60;99.90
30628;DHT22;17394;50.890;4.724;2023-04-25T06:45:03;7.70;99.90
30628;DHT22;17394;50.890;4.724;2023-04-25T06:47:29;7.80;99.90
30628;DHT22;17394;50.890;4.724;2023-04-25T06:49:55;7.80;99.90
30628;DHT22;17394;50.890;4.724;2023-04-25T06:52:21;7.80;99.90
30628;DHT22;17394;50.890;4.724;2023-04-25T06:54:46;7.90;99.90
30628;DHT22;17394;50.890;4.724;2023-04-25T06:57:14;7.80;99.90
30628;DHT22;17394;50.890;4.724;2023-04-25T06:59:40;7.90;99.90
30628;DHT22;17394;50.890;4.724;2023-04-25T07:02:05;7.90;99.90
30628;DHT22;17394;50.890;4.724;2023-04-25T07:04:31;8.00;99.90
30628;DHT22;17394;50.890;4.724;2023-04-25T07:06:57;8.00;99.90
30628;DHT22;17394;50.890;4.724;2023-04-25T07:09:22;8.00;99.90
30628;DHT22;17394;50.890;4.724;2023-04-25T07:11:48;8.00;99.90
30628;DHT22;17394;50.890;4.724;2023-04-25T07:14:13;8.00;99.90
30628;DHT22;17394;50.890;4.724;2023-04-25T07:16:40;8.10;99.90
30628;DHT22;17394;50.890;4.724;2023-04-25T07:19:06;8.10;99.90
30628;DHT22;17394;50.890;4.724;2023-04-25T07:21:31;8.20;99.90
30628;DHT22;17394;50.890;4.724;2023-04-25T07:23:58;8.20;99.90
30628;DHT22;17394;50.890;4.724;2023-04-25T07:26:23;8.40;99.90
30628;DHT22;17394;50.890;4.724;2023-04-25T07:28:49;8.40;99.90
30628;DHT22;17394;50.890;4.724;2023-04-25T07:31:17;8.50;99.90
30628;DHT22;17394;50.890;4.724;2023-04-25T07:33:46;8.60;99.90
30628;DHT22;17394;50.890;4.724;2023-04-25T07:36:12;8.70;99.90
30628;DHT22;17394;50.890;4.724;2023-04-25T07:38:38;8.70;99.90
30628;DHT22;17394;50.890;4.724;2023-04-25T07:41:04;8.80;99.90
30628;DHT22;17394;50.890;4.724;2023-04-25T07:43:29;8.80;99.90
30628;DHT22;17394;50.890;4.724;2023-04-25T07:45:55;9.00;99.90
30628;DHT22;17394;50.890;4.724;2023-04-25T07:48:21;9.10;99.90
30628;DHT22;17394;50.890;4.724;2023-04-25T07:50:47;9.30;99.90
30628;DHT22;17394;50.890;4.724;2023-04-25T07:53:12;9.40;99.90
30628;DHT22;17394;50.890;4.724;2023-04-25T07:55:38;9.60;99.90
30628;DHT22;17394;50.890;4.724;2023-04-25T07:58:08;9.90;99.90
30628;DHT22;17394;50.890;4.724;2023-04-25T08:00:34;10.10;99.90
30628;DHT22;17394;50.890;4.724;2023-04-25T08:03:00;10.20;99.90
30628;DHT22;17394;50.890;4.724;2023-04-25T08:05:26;10.00;99.90
30628;DHT22;17394;50.890;4.724;2023-04-25T08:07:51;9.90;99.90
30628;DHT22;17394;50.890;4.724;2023-04-25T08:10:17;9.80;99.90
30628;DHT22;17394;50.890;4.724;2023-04-25T08:12:43;9.60;99.90
30628;DHT22;17394;50.890;4.724;2023-04-25T08:15:08;9.50;99.90
30628;DHT22;17394;50.890;4.724;2023-04-25T08:17:34;9.40;99.90
30628;DHT22;17394;50.890;4.724;2023-04-25T08:20:00;9.20;99.90
30628;DHT22;17394;50.890;4.724;2023-04-25T08:22:25;9.00;99.90
30628;DHT22;17394;50.890;4.724;2023-04-25T08:24:51;8.90;99.90
30628;DHT22;17394;50.890;4.724;2023-04-25T08:27:17;8.80;99.90
30628;DHT22;17394;50.890;4.724;2023-04-25T08:29:43;8.70;99.90
30628;DHT22;17394;50.890;4.724;2023-04-25T08:32:09;8.70;99.90
30628;DHT22;17394;50.890;4.724;2023-04-25T08:34:34;8.60;99.90
30628;DHT22;17394;50.890;4.724;2023-04-25T08:37:02;8.60;99.90
30628;DHT22;17394;50.890;4.724;2023-04-25T08:39:29;8.60;99.90
30628;DHT22;17394;50.890;4.724;2023-04-25T08:41:57;8.50;99.90
30628;DHT22;17394;50.890;4.724;2023-04-25T08:44:22;8.40;99.90
30628;DHT22;17394;50.890;4.724;2023-04-25T08:46:48;8.40;99.90
30628;DHT22;17394;50.890;4.724;2023-04-25T08:49:17;8.40;99.90
30628;DHT22;17394;50.890;4.724;2023-04-25T08:51:45;8.50;99.90
30628;DHT22;17394;50.890;4.724;2023-04-25T08:54:15;8.70;99.90
30628;DHT22;17394;50.890;4.724;2023-04-25T08:56:44;8.90;99.90
30628;DHT22;17394;50.890;4.724;2023-04-25T08:59:13;9.10;99.90
30628;DHT22;17394;50.890;4.724;2023-04-25T09:01:41;9.20;99.90
30628;DHT22;17394;50.890;4.724;2023-04-25T09:04:07;9.30;99.90
30628;DHT22;17394;50.890;4.724;2023-04-25T09:06:32;9.40;99.90
30628;DHT22;17394;50.890;4.724;2023-04-25T09:09:03;9.40;99.90
30628;DHT22;17394;50.890;4.724;2023-04-25T09:11:30;9.40;99.90
30628;DHT22;17394;50.890;4.724;2023-04-25T09:14:15;9.60;99.90
30628;DHT22;17394;50.890;4.724;2023-04-25T09:19:29;10.90;99.90
30628;DHT22;17394;50.890;4.724;2023-04-25T09:21:56;11.80;99.90
30628;DHT22;17394;50.890;4.724;2023-04-25T09:26:57;12.30;99.90
30628;DHT22;17394;50.890;4.724;2023-04-25T09:29:29;11.90;99.90
30628;DHT22;17394;50.890;4.724;2023-04-25T09:32:16;11.40;99.90
30628;DHT22;17394;50.890;4.724;2023-04-25T09:34:43;10.90;99.90
30628;DHT22;17394;50.890;4.724;2023-04-25T09:37:09;10.40;99.90
30628;DHT22;17394;50.890;4.724;2023-04-25T09:39:39;10.10;99.90
30628;DHT22;17394;50.890;4.724;2023-04-25T09:42:05;9.90;99.90
30628;DHT22;17394;50.890;4.724;2023-04-25T09:44:31;9.80;99.90
30628;DHT22;17394;50.890;4.724;2023-04-25T09:46:56;9.70;99.90
30628;DHT22;17394;50.890;4.724;2023-04-25T09:49:22;9.70;99.90
30628;DHT22;17394;50.890;4.724;2023-04-25T09:51:55;9.70;99.90
30628;DHT22;17394;50.890;4.724;2023-04-25T09:54:21;9.70;99.90
30628;DHT22;17394;50.890;4.724;2023-04-25T09:56:47;9.70;99.90
30628;DHT22;17394;50.890;4.724;2023-04-25T09:59:13;9.70;99.90
30628;DHT22;17394;50.890;4.724;2023-04-25T10:01:39;9.70;99.90
30628;DHT22;17394;50.890;4.724;2023-04-25T10:04:06;9.60;99.90
30628;DHT22;17394;50.890;4.724;2023-04-25T10:06:35;9.60;99.90
30628;DHT22;17394;50.890;4.724;2023-04-25T10:09:02;9.70;99.90
30628;DHT22;17394;50.890;4.724;2023-04-25T10:11:29;9.90;99.90
30628;DHT22;17394;50.890;4.724;2023-04-25T10:13:55;10.30;99.90
30628;DHT22;17394;50.890;4.724;2023-04-25T10:16:21;10.60;99.90
30628;DHT22;17394;50.890;4.724;2023-04-25T10:18:47;11.00;99.90
30628;DHT22;17394;50.890;4.724;2023-04-25T10:21:13;11.60;99.90
30628;DHT22;17394;50.890;4.724;2023-04-25T10:23:40;12.20;99.90
30628;DHT22;17394;50.890;4.724;2023-04-25T10:26:06;12.70;99.90
30628;DHT22;17394;50.890;4.724;2023-04-25T10:31:24;12.50;99.90
30628;DHT22;17394;50.890;4.724;2023-04-25T10:33:51;12.50;99.90
30628;DHT22;17394;50.890;4.724;2023-04-25T10:36:23;12.50;99.90
30628;DHT22;17394;50.890;4.724;2023-04-25T10:38:49;12.30;99.90
30628;DHT22;17394;50.890;4.724;2023-04-25T10:41:20;12.20;99.90
30628;DHT22;17394;50.890;4.724;2023-04-25T10:43:47;12.00;99.90
30628;DHT22;17394;50.890;4.724;2023-04-25T10:46:22;11.70;99.90
30628;DHT22;17394;50.890;4.724;2023-04-25T10:51:21;11.70;99.90
30628;DHT22;17394;50.890;4.724;2023-04-25T10:53:56;12.00;99.90
30628;DHT22;17394;50.890;4.724;2023-04-25T10:56:23;12.50;99.90
30628;DHT22;17394;50.890;4.724;2023-04-25T10:58:50;13.00;99.90
30628;DHT22;17394;50.890;4.724;2023-04-25T11:01:19;13.50;99.90
30628;DHT22;17394;50.890;4.724;2023-04-25T11:03:45;13.90;99.90
30628;DHT22;17394;50.890;4.724;2023-04-25T11:06:20;14.20;99.90
30628;DHT22;17394;50.890;4.724;2023-04-25T11:08:48;14.20;99.90
30628;DHT22;17394;50.890;4.724;2023-04-25T11:11:18;14.00;99.90
30628;DHT22;17394;50.890;4.724;2023-04-25T11:13:44;13.60;99.90
30628;DHT22;17394;50.890;4.724;2023-04-25T11:16:12;13.20;99.90
30628;DHT22;17394;50.890;4.724;2023-04-25T11:18:40;12.90;99.90
30628;DHT22;17394;50.890;4.724;2023-04-25T11:21:06;12.60;99.90
30628;DHT22;17394;50.890;4.724;2023-04-25T11:23:31;12.50;99.90
30628;DHT22;17394;50.890;4.724;2023-04-25T11:25:57;12.40;99.90
30628;DHT22;17394;50.890;4.724;2023-04-25T11:28:23;12.20;99.90
30628;DHT22;17394;50.890;4.724;2023-04-25T11:30:49;12.00;99.90
30628;DHT22;17394;50.890;4.724;2023-04-25T11:33:18;11.90;99.90
30628;DHT22;17394;50.890;4.724;2023-04-25T11:35:47;11.80;99.90
30628;DHT22;17394;50.890;4.724;2023-04-25T11:38:13;11.80;99.90
30628;DHT22;17394;50.890;4.724;2023-04-25T11:40:39;11.80;99.90
30628;DHT22;17394;50.890;4.724;2023-04-25T11:43:05;11.80;99.90
30628;DHT22;17394;50.890;4.724;2023-04-25T11:45:31;11.90;99.90
30628;DHT22;17394;50.890;4.724;2023-04-25T11:47:57;12.10;99.90
30628;DHT22;17394;50.890;4.724;2023-04-25T11:50:22;12.30;99.90
30628;DHT22;17394;50.890;4.724;2023-04-25T11:52:48;12.60;99.90
30628;DHT22;17394;50.890;4.724;2023-04-25T11:55:15;12.60;99.90
30628;DHT22;17394;50.890;4.724;2023-04-25T11:57:41;12.50;99.90
30628;DHT22;17394;50.890;4.724;2023-04-25T12:00:11;12.30;99.90
30628;DHT22;17394;50.890;4.724;2023-04-25T12:02:41;12.30;99.90
30628;DHT22;17394;50.890;4.724;2023-04-25T12:05:08;12.50;99.90
30628;DHT22;17394;50.890;4.724;2023-04-25T12:07:34;12.40;99.90
30628;DHT22;17394;50.890;4.724;2023-04-25T12:10:03;12.10;99.90
30628;DHT22;17394;50.890;4.724;2023-04-25T12:12:32;11.80;99.90
30628;DHT22;17394;50.890;4.724;2023-04-25T12:15:07;11.60;99.90
30628;DHT22;17394;50.890;4.724;2023-04-25T12:17:33;11.50;99.90
30628;DHT22;17394;50.890;4.724;2023-04-25T12:19:59;11.60;99.90
30628;DHT22;17394;50.890;4.724;2023-04-25T12:22:25;11.60;99.90
30628;DHT22;17394;50.890;4.724;2023-04-25T12:24:50;11.90;99.90
30628;DHT22;17394;50.890;4.724;2023-04-25T12:27:18;12.30;99.90
30628;DHT22;17394;50.890;4.724;2023-04-25T12:29:54;12.60;99.90
30628;DHT22;17394;50.890;4.724;2023-04-25T12:32:20;12.60;99.90
30628;DHT22;17394;50.890;4.724;2023-04-25T12:34:46;12.40;99.90
30628;DHT22;17394;50.890;4.724;2023-04-25T12:37:11;12.30;99.90
30628;DHT22;17394;50.890;4.724;2023-04-25T12:39:37;12.50;99.90
30628;DHT22;17394;50.890;4.724;2023-04-25T12:42:02;12.80;99.90
30628;DHT22;17394;50.890;4.724;2023-04-25T12:44:28;12.80;99.90
30628;DHT22;17394;50.890;4.724;2023-04-25T12:46:54;12.70;99.90
30628;DHT22;17394;50.890;4.724;2023-04-25T12:49:20;12.50;99.90
30628;DHT22;17394;50.890;4.724;2023-04-25T12:51:46;12.40;99.90
30628;DHT22;17394;50.890;4.724;2023-04-25T12:54:14;12.40;99.90
30628;DHT22;17394;50.890;4.724;2023-04-25T12:56:40;12.70;99.90
30628;DHT22;17394;50.890;4.724;2023-04-25T12:59:06;13.20;99.90
30628;DHT22;17394;50.890;4.724;2023-04-25T13:01:31;13.60;99.90
30628;DHT22;17394;50.890;4.724;2023-04-25T13:03:57;13.90;99.90
30628;DHT22;17394;50.890;4.724;2023-04-25T13:06:22;13.80;99.90
30628;DHT22;17394;50.890;4.724;2023-04-25T13:08:48;13.60;99.90
30628;DHT22;17394;50.890;4.724;2023-04-25T13:11:14;13.30;99.90
30628;DHT22;17394;50.890;4.724;2023-04-25T13:13:43;13.10;99.90
30628;DHT22;17394;50.890;4.724;2023-04-25T13:16:09;12.90;99.90
30628;DHT22;17394;50.890;4.724;2023-04-25T13:18:35;12.80;99.90
30628;DHT22;17394;50.890;4.724;2023-04-25T13:21:00;12.50;99.90
30628;DHT22;17394;50.890;4.724;2023-04-25T13:23:27;12.30;99.90
30628;DHT22;17394;50.890;4.724;2023-04-25T13:25:53;12.20;99.90
30628;DHT22;17394;50.890;4.724;2023-04-25T13:28:18;12.30;99.90
30628;DHT22;17394;50.890;4.724;2023-04-25T13:30:44;12.60;99.90
30628;DHT22;17394;50.890;4.724;2023-04-25T13:33:11;13.00;99.90
30628;DHT22;17394;50.890;4.724;2023-04-25T13:35:37;13.10;99.90
30628;DHT22;17394;50.890;4.724;2023-04-25T13:38:03;13.00;99.90
30628;DHT22;17394;50.890;4.724;2023-04-25T13:40:29;13.20;99.90
30628;DHT22;17394;50.890;4.724;2023-04-25T13:42:55;13.40;99.90
30628;DHT22;17394;50.890;4.724;2023-04-25T13:45:20;13.50;99.90
30628;DHT22;17394;50.890;4.724;2023-04-25T13:47:46;13.20;99.90
30628;DHT22;17394;50.890;4.724;2023-04-25T13:50:12;12.80;99.90
30628;DHT22;17394;50.890;4.724;2023-04-25T13:52:39;12.90;99.90
30628;DHT22;17394;50.890;4.724;2023-04-25T13:55:05;13.10;99.90
30628;DHT22;17394;50.890;4.724;2023-04-25T13:57:32;13.10;99.90
30628;DHT22;17394;50.890;4.724;2023-04-25T13:59:58;13.00;99.90
30628;DHT22;17394;50.890;4.724;2023-04-25T14:02:24;13.20;99.90
30628;DHT22;17394;50.890;4.724;2023-04-25T14:04:51;13.50;99.90
30628;DHT22;17394;50.890;4.724;2023-04-25T14:07:16;13.60;99.90
30628;DHT22;17394;50.890;4.724;2023-04-25T14:09:43;13.80;99.90
30628;DHT22;17394;50.890;4.724;2023-04-25T14:12:09;13.70;99.90
30628;DHT22;17394;50.890;4.724;2023-04-25T14:14:34;13.50;99.50
30628;DHT22;17394;50.890;4.724;2023-04-25T14:17:00;13.20;99.70
30628;DHT22;17394;50.890;4.724;2023-04-25T14:19:26;13.20;99.00
30628;DHT22;17394;50.890;4.724;2023-04-25T14:21:51;13.40;99.70
30628;DHT22;17394;50.890;4.724;2023-04-25T14:24:17;13.40;99.50
30628;DHT22;17394;50.890;4.724;2023-04-25T14:26:43;13.70;99.80
30628;DHT22;17394;50.890;4.724;2023-04-25T14:29:09;14.10;99.90
30628;DHT22;17394;50.890;4.724;2023-04-25T14:31:37;14.60;99.90
30628;DHT22;17394;50.890;4.724;2023-04-25T14:34:03;14.90;99.90
30628;DHT22;17394;50.890;4.724;2023-04-25T14:36:28;14.60;98.40
30628;DHT22;17394;50.890;4.724;2023-04-25T14:38:54;14.20;97.90
30628;DHT22;17394;50.890;4.724;2023-04-25T14:41:20;13.80;99.90
30628;DHT22;17394;50.890;4.724;2023-04-25T14:43:46;13.70;99.90
30628;DHT22;17394;50.890;4.724;2023-04-25T14:46:12;13.70;99.90
30628;DHT22;17394;50.890;4.724;2023-04-25T14:48:37;13.30;98.40
30628;DHT22;17394;50.890;4.724;2023-04-25T14:51:03;13.00;99.90
30628;DHT22;17394;50.890;4.724;2023-04-25T14:53:30;12.80;99.70
30628;DHT22;17394;50.890;4.724;2023-04-25T14:55:56;12.90;99.90
30628;DHT22;17394;50.890;4.724;2023-04-25T14:58:22;13.00;99.90
30628;DHT22;17394;50.890;4.724;2023-04-25T15:00:48;13.20;99.90
30628;DHT22;17394;50.890;4.724;2023-04-25T15:03:13;13.40;99.90
30628;DHT22;17394;50.890;4.724;2023-04-25T15:05:41;13.30;99.50
30628;DHT22;17394;50.890;4.724;2023-04-25T15:08:07;13.00;99.60
30628;DHT22;17394;50.890;4.724;2023-04-25T15:10:33;12.80;99.90
30628;DHT22;17394;50.890;4.724;2023-04-25T15:13:03;12.60;99.90
30628;DHT22;17394;50.890;4.724;2023-04-25T15:15:29;12.40;99.90
30628;DHT22;17394;50.890;4.724;2023-04-25T15:17:54;12.40;99.90
30628;DHT22;17394;50.890;4.724;2023-04-25T15:20:20;12.40;99.90
30628;DHT22;17394;50.890;4.724;2023-04-25T15:22:46;12.40;99.90
30628;DHT22;17394;50.890;4.724;2023-04-25T15:25:14;12.30;99.90
30628;DHT22;17394;50.890;4.724;2023-04-25T15:27:40;12.20;99.90
30628;DHT22;17394;50.890;4.724;2023-04-25T15:30:09;12.00;99.90
30628;DHT22;17394;50.890;4.724;2023-04-25T15:32:36;11.70;99.90
30628;DHT22;17394;50.890;4.724;2023-04-25T15:35:02;11.60;99.90
30628;DHT22;17394;50.890;4.724;2023-04-25T15:37:28;11.50;99.90
30628;DHT22;17394;50.890;4.724;2023-04-25T15:40:02;11.40;99.90
30628;DHT22;17394;50.890;4.724;2023-04-25T15:42:51;11.30;99.90
30628;DHT22;17394;50.890;4.724;2023-04-25T15:45:17;11.30;99.90